Northern & Central Napa County

32 Stations

15 Minute Data | America/Los_Angeles
as of 5/7/26 6:45 PM PDT
Station Date Time Temp (°F) RH (%) Dew Pt (°F) Wind Spd (mph) Wind Dir (°) Wind Gust (mph) Latest Rain (In) Daily Rain (In) Daily Max Temp (°F) Daily Min Temp (°F)
Calistoga-North 5/7/26 1845 72.6   3.1 62   0 59.0   2.9 - - - 0.00 0.00 82.0   1.3 51.8   3.2
Stags Leap Dist (Chimney Rock) 5/7/26 1845 68.8   3.2 67   4 57.4   1.6 6.2   1.5 SE | 134 12.2   3.1 0.00 0.00 77.2   0.5 52.4   2.2
Diamond Mtn (McEachran) 5/7/26 1845 71.1   3.8 59   3 56.1   2.4 - - - - - 77.9   1.4 50.4   3.4
Diamond Mtn (Schramsberg) 5/7/26 1845 71.1   4.8 60   5 56.6   2.2 - - - 0.00 0.00 78.5   1.7 49.3   3.2
Stags Leap Dist (Silverado Vineyards) 5/7/26 1830 70.4   2.0 60   3 55.7   0.6 5.9   2.6 SE | 128 12.7   4.9 0.00 0.00 76.2   0.5 51.9   2.2
Oak Knoll-East (Ranch 53) 5/7/26 1845 68.3   3.2 62   5 54.7   0.9 4.7   0.7 SE | 131 8.6   0.5 0.00 0.00 77.4   0.1 52.6   2.8
Rutherford-North (Mee Ln) 5/7/26 1845 72.7   0.9 60   6 58.2   2.1 7.2   2.7 SE | 136 12.3   2.6 0.00 0.00 79.3   0.6 50.2   4.2
Frisinger Napa-NW 5/7/26 1845 70.5   1.9 64   0 57.6   1.6 5.1   4.1 ENE | 77 9.3   5.3 0.00 0.00 77.4   1.9 53.0   2.1
Napa-North (Ranch 29) 5/7/26 1845 67.6   2.4 63   2 54.5   1.1 2.7   0.3 SSE | 167 7.4   0.4 0.00 0.00 75.7   0.3 51.9   3.1
St. Helena (NVV Office) 5/7/26 1845 77.4   7.2 - - 1.5   2.1 WNW | 302 5.4   4.3 0.00 0.00 83.1   3.0 53.2   2.9
Crossroads Ranch 5/7/26 1845 71.1   0.6 61   1 57.2   0.3 8.4   2.8 SSE | 151 12.6   3.4 0.00 0.00 78.1   0.8 53.1   2.5
Oakville 5/7/26 1845 71.1   0.1 60   5 56.6   2.2 6.7   1.2 SE | 142 13.1   0.0 0.00 0.00 78.0   0.7 52.8   2.7
OV561-East 5/7/26 1845 73.9   1.8 - - - - - - - 81.9   0.9 53.2   2.1
OV518-West 5/7/26 1845 71.0   0.4 - - - - - - - 77.4   0.1 53.1   2.3
Napa-NW (Ranch 54) 5/7/26 1845 74.6   0.7 53   0 56.3   0.5 0.2   3.0 ESE | 111 2.4   6.1 0.00 0.00 79.6   2.1 52.9   2.6
Calistoga (Ranch 78) 5/7/26 1845 74.5   4.7 53   3 56.3   2.6 4.1   1.9 NW | 314 8.0   3.7 0.00 0.00 79.6   0.2 51.7   3.5
Yountville-SE (Ranch 85) 5/7/26 1845 69.0   3.2 64   4 56.2   1.4 5.3   0.2 S | 170 10.4   2.8 0.00 0.00 77.2   0.5 52.8   2.2
Yountville-South (Ranch 87) 5/7/26 1845 69.3   2.8 63   2 56.2   1.7 5.1   0.9 SE | 130 8.7   1.4 0.00 0.00 79.0   2.7 52.6   2.6
Rutherford Hill Estate 5/7/26 1845 75.1   2.6 56   1 58.3   3.1 1.9   2.6 S | 176 7.7   4.6 0.00 0.00 79.9   0.2 51.8   2.6
Rutherford (STS) 5/7/26 1845 71.8   0.8 68   6 60.5   3.3 6.0   0.1 ESE | 123 11.5   0.1 0.00 0.00 80.1   1.3 52.7   2.4
Borreo (Soda Canyon) 5/7/26 1845 66.4   3.0 65   4 54.4   1.1 3.4   1.6 S | 180 8.2   2.6 0.00 0.00 74.6   0.5 49.6   3.0
Oakville-NE (Ranch 88) 5/7/26 1845 72.9   1.6 56   6 56.4   1.4 5.2   1.1 S | 188 11.8   3.3 0.00 0.00 79.3   0.7 52.6   3.0
Soda Canyon 5/7/26 1845 67.3   3.2 70   3 57.4   1.9 3.7   0.0 SE | 145 9.1   1.8 0.00 0.00 75.6   0.6 47.3   6.8
Silver Oak OV 5/7/26 1845 71.1   1.0 62   6 57.6   1.7 8.0   1.9 SE | 140 12.7   2.0 0.00 0.00 77.7   0.2 53.0   2.7
Tiara Fria (East St. Helena) 5/7/26 1845 74.2   3.4 58   2 58.3   4.3 4.8   1.5 SE | 133 8.9   4.7 0.00 0.00 81.5   2.5 53.3   3.0
To Kalon Remote (TKKE) 5/7/26 1830 75.0   2.4 - - - - - - - 80.3   0.9 53.2   2.9
To Kalon 5/7/26 1845 71.6   1.0 62   4 57.8   3.0 7.1   2.5 SSE | 148 13.1   1.7 0.00 0.00 78.7   0.2 53.1   2.2
To Kalon Remote (TKN5) 5/7/26 1845 72.9   2.7 - - - - - - - 81.0   2.2 53.4   2.3
St. Helena-North 5/7/26 1845 76.1   4.8 48   3 55.0   2.6 3.2   0.6 NW | 320 7.7   4.4 0.00 0.00 82.7   2.5 52.5   2.8
Twomey Calistoga 5/7/26 1845 73.8   2.5 55   0 56.8   2.3 4.8   0.1 NW | 310 10.7   2.2 0.00 0.00 79.2   1.2 52.1   2.9
Wappo Hill Floor 5/7/26 1845 68.8   4.5 62   6 55.5   1.6 6.5   2.4 SSE | 148 11.3   3.2 0.00 0.00 78.0   1.0 51.4   2.7
Yountville (Ranch 67) 5/7/26 1845 68.4   1.6 61   7 54.6   1.8 6.0   0.8 SSE | 159 11.2   1.5 0.00 0.00 76.3   0.1 52.0   2.4
Max     77.4 70 60.5 8.4 - 13.1 0.00 0.00 83.1 53.4
Avg     71.6 61 56.7 4.9 - 9.9 0.00 - - -
Min     66.4 48 54.4 0.2 - 2.4 0.00 0.00 74.6 47.3